createdAt,value
2023-11-21T00:00:18.147Z,21.20
2023-11-21T00:03:12.638Z,20.20
2023-11-21T00:05:44.852Z,23.00
2023-11-21T00:08:16.918Z,21.60
2023-11-21T00:10:49.514Z,20.50
2023-11-21T00:15:52.833Z,21.60
2023-11-21T00:18:25.716Z,20.60
2023-11-21T00:23:28.343Z,20.10
2023-11-21T00:26:00.696Z,22.00
2023-11-21T00:28:33.711Z,21.40
2023-11-21T00:31:06.329Z,22.40
2023-11-21T00:33:38.648Z,21.00
2023-11-21T00:36:12.425Z,23.10
2023-11-21T00:38:45.649Z,22.70
2023-11-21T00:41:18.696Z,25.90
2023-11-21T00:43:51.882Z,24.90
2023-11-21T00:46:25.400Z,24.80
2023-11-21T00:48:57.490Z,24.40
2023-11-21T00:51:29.560Z,26.20
2023-11-21T00:54:02.309Z,25.50
2023-11-21T00:56:35.043Z,26.40
2023-11-21T00:59:08.107Z,26.80
2023-11-21T01:01:40.499Z,24.90
2023-11-21T01:04:13.281Z,27.10
2023-11-21T01:06:46.370Z,27.40
2023-11-21T01:09:19.543Z,24.80
2023-11-21T01:11:53.125Z,29.20
2023-11-21T01:14:27.565Z,28.20
2023-11-21T01:16:59.697Z,26.90
2023-11-21T01:19:32.167Z,28.00
2023-11-21T01:22:05.000Z,26.50
2023-11-21T01:24:37.858Z,28.60
2023-11-21T01:27:10.524Z,27.00
2023-11-21T01:29:42.727Z,29.40
2023-11-21T01:32:15.153Z,28.30
2023-11-21T01:34:48.479Z,28.30
2023-11-21T01:37:20.515Z,28.90
2023-11-21T01:39:52.736Z,28.20
2023-11-21T01:42:24.834Z,28.50
2023-11-21T01:44:57.012Z,28.10
2023-11-21T01:47:29.361Z,29.50
2023-11-21T01:50:01.952Z,25.90
2023-11-21T01:52:34.254Z,29.40
2023-11-21T01:55:09.537Z,29.90
2023-11-21T01:57:41.781Z,28.30
2023-11-21T02:00:17.384Z,28.50
2023-11-21T02:02:50.816Z,29.10
2023-11-21T02:05:23.680Z,28.90
2023-11-21T02:07:55.843Z,30.20
2023-11-21T02:10:28.317Z,30.50
2023-11-21T02:13:03.560Z,28.80
2023-11-21T02:15:35.776Z,28.60
2023-11-21T02:18:11.220Z,27.90
2023-11-21T02:20:43.929Z,29.10
2023-11-21T02:25:48.340Z,27.70
2023-11-21T02:28:27.059Z,28.60
2023-11-21T02:31:00.422Z,32.10
2023-11-21T02:33:34.899Z,28.10
2023-11-21T02:36:07.936Z,30.40
2023-11-21T02:38:40.040Z,30.70
2023-11-21T02:41:12.221Z,26.60
2023-11-21T02:43:44.405Z,29.10
2023-11-21T02:46:16.635Z,30.80
2023-11-21T02:48:48.676Z,31.30
2023-11-21T02:51:20.879Z,30.00
2023-11-21T02:53:53.143Z,32.00
2023-11-21T02:56:25.149Z,29.30
2023-11-21T02:58:59.096Z,22.60
2023-11-21T03:01:31.759Z,28.30
2023-11-21T03:06:35.851Z,27.30
2023-11-21T03:09:09.005Z,29.30
2023-11-21T03:11:43.858Z,28.70
2023-11-21T03:14:16.712Z,29.50
2023-11-21T03:16:50.837Z,29.50
2023-11-21T03:19:24.469Z,25.80
2023-11-21T03:21:56.754Z,27.70
2023-11-21T03:24:29.827Z,26.90
2023-11-21T03:27:02.014Z,26.60
2023-11-21T03:29:34.081Z,28.30
2023-11-21T03:32:08.116Z,26.60
2023-11-21T03:34:58.830Z,26.70
2023-11-21T03:37:31.655Z,25.90
2023-11-21T03:42:36.886Z,23.60
2023-11-21T03:45:13.438Z,26.20
2023-11-21T03:47:46.602Z,23.00
2023-11-21T03:50:19.435Z,22.10
2023-11-21T03:55:22.045Z,19.50
2023-11-21T03:57:56.680Z,20.60
2023-11-21T04:00:30.006Z,19.80
2023-11-21T04:03:02.462Z,18.50
2023-11-21T04:05:34.826Z,16.60
2023-11-21T04:08:07.347Z,16.80
2023-11-21T04:13:11.902Z,17.50
2023-11-21T04:15:44.320Z,18.20
2023-11-21T04:18:16.516Z,17.70
2023-11-21T04:20:48.481Z,17.90
2023-11-21T04:23:20.576Z,17.40
2023-11-21T04:25:55.462Z,17.40
2023-11-21T04:28:27.861Z,15.70
2023-11-21T04:30:59.935Z,15.40
2023-11-21T04:33:32.641Z,14.90
2023-11-21T04:38:35.320Z,13.20
2023-11-21T04:41:07.703Z,14.50
2023-11-21T04:43:39.803Z,13.40
2023-11-21T04:46:12.525Z,10.50
2023-11-21T04:51:15.634Z,12.10
2023-11-21T04:53:47.717Z,11.60
2023-11-21T04:56:19.852Z,12.00
2023-11-21T04:58:52.190Z,11.10
2023-11-21T05:01:24.259Z,10.60
2023-11-21T05:03:58.130Z,10.60
2023-11-21T05:06:30.322Z,9.50
2023-11-21T05:09:02.682Z,8.40
2023-11-21T05:11:34.766Z,9.30
2023-11-21T05:14:08.435Z,10.00
2023-11-21T05:16:41.143Z,10.10
2023-11-21T05:19:14.120Z,9.00
2023-11-21T05:21:47.413Z,8.60
2023-11-21T05:24:19.656Z,8.50
2023-11-21T05:26:51.938Z,7.00
2023-11-21T05:29:26.740Z,6.80
2023-11-21T05:32:02.193Z,8.00
2023-11-21T05:34:34.389Z,8.00
2023-11-21T05:37:06.765Z,7.70
2023-11-21T05:39:39.111Z,8.40
2023-11-21T05:42:11.933Z,8.00
2023-11-21T05:47:16.048Z,7.30
2023-11-21T05:49:51.690Z,8.50
2023-11-21T05:52:24.047Z,9.30
2023-11-21T05:54:56.319Z,10.20
2023-11-21T05:57:28.422Z,9.70
2023-11-21T06:00:01.000Z,9.40
2023-11-21T06:02:33.410Z,8.50
2023-11-21T06:05:06.480Z,9.00
2023-11-21T06:07:39.712Z,8.90
2023-11-21T06:10:15.432Z,9.00
2023-11-21T06:12:49.834Z,9.90
2023-11-21T06:15:23.544Z,9.50
2023-11-21T06:17:55.887Z,10.90
2023-11-21T06:20:28.479Z,9.60
2023-11-21T06:25:34.238Z,9.60
2023-11-21T06:28:06.441Z,9.50
2023-11-21T06:30:39.218Z,10.80
2023-11-21T06:33:11.779Z,10.10
2023-11-21T06:35:44.273Z,10.50
2023-11-21T06:38:16.359Z,9.30
2023-11-21T06:40:48.518Z,11.10
2023-11-21T06:43:20.663Z,11.10
2023-11-21T06:45:52.697Z,11.70
2023-11-21T06:48:24.843Z,10.80
2023-11-21T06:50:57.053Z,8.90
2023-11-21T06:53:29.072Z,10.60
2023-11-21T06:56:01.663Z,10.20
2023-11-21T06:58:34.935Z,10.30
2023-11-21T07:01:08.230Z,9.50
2023-11-21T07:03:40.734Z,10.60
2023-11-21T07:06:14.566Z,9.30
2023-11-21T07:08:48.420Z,10.50
2023-11-21T07:11:20.780Z,11.00
2023-11-21T07:13:53.209Z,9.40
2023-11-21T07:16:26.597Z,9.80
2023-11-21T07:18:59.284Z,10.70
2023-11-21T07:21:31.901Z,11.10
2023-11-21T07:24:05.039Z,10.80
2023-11-21T07:26:38.995Z,10.50
2023-11-21T07:29:12.792Z,9.20
2023-11-21T07:31:45.788Z,9.40
2023-11-21T07:34:18.208Z,9.60
2023-11-21T07:36:50.666Z,9.80
2023-11-21T07:39:23.001Z,10.20
2023-11-21T07:41:55.203Z,9.60
2023-11-21T07:44:29.528Z,10.70
2023-11-21T07:47:01.882Z,10.60
2023-11-21T07:49:34.665Z,8.60
2023-11-21T07:52:07.417Z,8.50
2023-11-21T07:57:14.441Z,10.00
2023-11-21T07:59:47.325Z,8.00
2023-11-21T08:04:51.596Z,7.20
2023-11-21T08:09:55.292Z,7.40
2023-11-21T08:12:28.795Z,5.40
2023-11-21T08:15:01.705Z,8.20
2023-11-21T08:17:34.356Z,8.70
2023-11-21T08:20:10.483Z,8.70
2023-11-21T08:22:43.018Z,7.70
2023-11-21T08:25:16.048Z,8.30
2023-11-21T08:30:21.001Z,7.80
2023-11-21T08:32:55.144Z,8.90
2023-11-21T08:35:27.814Z,8.50
2023-11-21T08:40:31.044Z,8.50
2023-11-21T08:43:05.787Z,9.20
2023-11-21T08:45:38.637Z,9.70
2023-11-21T08:48:12.675Z,9.60
2023-11-21T08:50:45.094Z,10.80
2023-11-21T08:53:17.947Z,8.90
2023-11-21T08:58:21.731Z,10.80
2023-11-21T09:00:54.439Z,11.60
2023-11-21T09:03:26.946Z,12.80
2023-11-21T09:05:59.866Z,12.30
2023-11-21T09:08:33.246Z,12.70
2023-11-21T09:11:07.329Z,13.90
2023-11-21T09:13:39.619Z,12.00
2023-11-21T09:16:12.398Z,12.90
2023-11-21T09:18:46.215Z,12.10
2023-11-21T09:21:18.979Z,13.10
2023-11-21T09:23:52.065Z,13.40
2023-11-21T09:26:24.487Z,14.10
2023-11-21T09:28:57.781Z,13.70
2023-11-21T09:31:30.212Z,13.30
2023-11-21T09:34:03.483Z,13.40
2023-11-21T09:36:35.653Z,13.20
2023-11-21T09:39:10.550Z,13.80
2023-11-21T09:41:49.706Z,14.20
2023-11-21T09:44:32.099Z,14.00
2023-11-21T09:47:09.692Z,15.80
2023-11-21T09:49:42.915Z,13.40
2023-11-21T09:52:26.397Z,13.50
2023-11-21T09:55:00.437Z,14.00
2023-11-21T09:57:34.190Z,15.10
2023-11-21T10:00:12.927Z,15.90
2023-11-21T10:02:46.117Z,15.90
2023-11-21T10:05:25.567Z,16.70
2023-11-21T10:08:00.027Z,16.20
2023-11-21T10:10:35.394Z,15.50
2023-11-21T10:13:13.613Z,16.20
2023-11-21T10:15:49.453Z,15.80
2023-11-21T10:18:24.361Z,17.20
2023-11-21T10:20:58.394Z,15.60
2023-11-21T10:23:32.159Z,15.80
2023-11-21T10:26:11.324Z,16.90
2023-11-21T10:29:02.004Z,15.90
2023-11-21T10:31:35.836Z,15.80
2023-11-21T10:34:19.478Z,16.20
2023-11-21T10:36:52.008Z,16.30
2023-11-21T10:41:59.320Z,16.30
2023-11-21T10:44:33.498Z,16.50
2023-11-21T10:47:06.852Z,17.20
2023-11-21T10:49:42.370Z,16.70
2023-11-21T10:52:18.572Z,15.50
2023-11-21T10:54:50.762Z,16.70
2023-11-21T10:57:24.985Z,16.70
2023-11-21T10:59:58.991Z,16.20
2023-11-21T11:02:35.304Z,17.70
2023-11-21T11:05:13.141Z,16.90
2023-11-21T11:07:46.988Z,18.30
2023-11-21T11:10:22.137Z,17.40
2023-11-21T11:12:55.256Z,18.20
2023-11-21T11:15:28.400Z,16.10
2023-11-21T11:18:01.782Z,17.10
2023-11-21T11:20:38.380Z,15.30
2023-11-21T11:23:27.010Z,16.40
2023-11-21T11:26:12.883Z,16.70
2023-11-21T11:28:49.807Z,16.20
2023-11-21T11:31:40.917Z,15.80
2023-11-21T11:34:25.676Z,16.50
2023-11-21T11:37:03.603Z,16.40
2023-11-21T11:39:40.479Z,16.60
2023-11-21T11:42:16.520Z,16.70
2023-11-21T11:44:55.948Z,18.50
2023-11-21T11:47:35.110Z,19.20
2023-11-21T11:50:14.278Z,19.70
2023-11-21T11:52:48.059Z,18.20
2023-11-21T11:55:22.496Z,18.60
2023-11-21T11:57:57.379Z,18.20
2023-11-21T12:00:42.050Z,18.20
2023-11-21T12:03:15.721Z,19.10
2023-11-21T12:05:54.070Z,20.40
2023-11-21T12:08:32.319Z,21.60
2023-11-21T12:11:05.649Z,21.10
2023-11-21T12:13:39.222Z,19.60
2023-11-21T12:16:13.095Z,20.90
2023-11-21T12:18:45.964Z,20.60
2023-11-21T12:21:18.628Z,21.70
2023-11-21T12:23:51.199Z,22.30
2023-11-21T12:28:57.977Z,19.90
2023-11-21T12:31:30.998Z,19.40
2023-11-21T12:34:03.821Z,20.50
2023-11-21T12:39:10.268Z,20.40
2023-11-21T12:41:42.604Z,19.80
2023-11-21T12:44:17.586Z,19.20
2023-11-21T12:46:51.269Z,19.70
2023-11-21T12:49:24.959Z,18.10
2023-11-21T12:51:57.031Z,21.20
2023-11-21T12:54:31.102Z,20.00
2023-11-21T12:57:06.488Z,18.10
2023-11-21T12:59:40.905Z,20.90
2023-11-21T13:02:16.017Z,19.40
2023-11-21T13:04:56.224Z,18.50
2023-11-21T13:07:28.396Z,18.20
2023-11-21T13:10:01.028Z,20.60
2023-11-21T13:15:11.161Z,18.40
2023-11-21T13:17:43.655Z,23.10
2023-11-21T13:20:17.611Z,18.30
2023-11-21T13:22:55.072Z,21.40
2023-11-21T13:25:28.667Z,20.60
2023-11-21T13:28:02.782Z,20.90
2023-11-21T13:30:35.890Z,20.50
2023-11-21T13:33:09.409Z,19.80
2023-11-21T13:35:43.068Z,19.00
2023-11-21T13:38:18.302Z,22.20
2023-11-21T13:40:54.977Z,18.20
2023-11-21T13:43:30.025Z,18.80
2023-11-21T13:46:09.425Z,18.60
2023-11-21T13:48:44.296Z,19.00
2023-11-21T13:51:18.637Z,19.00
2023-11-21T13:53:53.702Z,17.90
2023-11-21T13:56:27.807Z,17.10
2023-11-21T13:59:06.842Z,20.40
2023-11-21T14:01:55.475Z,19.10
2023-11-21T14:04:52.401Z,19.00
2023-11-21T14:07:34.167Z,18.40
2023-11-21T14:10:14.486Z,18.00
2023-11-21T14:12:48.079Z,17.60
2023-11-21T14:15:21.055Z,18.30
2023-11-21T14:20:25.366Z,17.20
2023-11-21T14:22:57.598Z,17.90
2023-11-21T14:25:30.120Z,17.70
2023-11-21T14:28:04.391Z,17.40
2023-11-21T14:30:37.237Z,18.10
2023-11-21T14:33:12.580Z,17.90
2023-11-21T14:35:45.701Z,17.20
2023-11-21T14:38:19.202Z,20.40
2023-11-21T14:40:51.417Z,19.40
2023-11-21T14:43:23.517Z,18.50
2023-11-21T14:45:57.336Z,18.90
2023-11-21T14:48:43.317Z,17.70
2023-11-21T14:51:28.602Z,17.50
2023-11-21T14:54:07.693Z,18.30
2023-11-21T14:56:40.370Z,17.50
2023-11-21T14:59:17.450Z,18.80
2023-11-21T15:01:56.606Z,17.30
2023-11-21T15:04:37.394Z,18.70
2023-11-21T15:07:12.324Z,18.50
2023-11-21T15:09:46.044Z,18.80
2023-11-21T15:12:20.854Z,18.50
2023-11-21T15:14:56.576Z,19.10
2023-11-21T15:17:31.754Z,18.80
2023-11-21T15:20:07.970Z,18.50
2023-11-21T15:22:40.917Z,18.00
2023-11-21T15:25:14.571Z,19.00
2023-11-21T15:27:48.092Z,17.80
2023-11-21T15:30:24.461Z,17.90
2023-11-21T15:32:57.355Z,19.70
2023-11-21T15:35:29.989Z,19.50
2023-11-21T15:38:02.629Z,19.00
2023-11-21T15:40:35.076Z,18.90
2023-11-21T15:43:08.443Z,17.30
2023-11-21T15:45:41.835Z,19.30
2023-11-21T15:48:14.091Z,18.20
2023-11-21T15:50:47.842Z,17.60
2023-11-21T15:53:20.795Z,17.30
2023-11-21T15:55:53.359Z,16.60
2023-11-21T15:58:26.893Z,17.40
2023-11-21T16:01:00.291Z,16.30
2023-11-21T16:03:35.296Z,18.50
2023-11-21T16:06:11.126Z,18.90
2023-11-21T16:08:43.334Z,16.30
2023-11-21T16:11:15.765Z,18.10
2023-11-21T16:13:49.910Z,17.30
2023-11-21T16:16:26.220Z,19.50
2023-11-21T16:18:59.077Z,17.80
2023-11-21T16:24:01.804Z,17.30
2023-11-21T16:26:36.713Z,17.70
2023-11-21T16:29:08.884Z,17.50
2023-11-21T16:31:42.386Z,19.00
2023-11-21T16:34:20.532Z,17.70
2023-11-21T16:36:53.685Z,16.40
2023-11-21T16:41:57.002Z,15.80
2023-11-21T16:44:30.197Z,18.30
2023-11-21T16:47:06.721Z,17.90
2023-11-21T16:49:41.660Z,18.30
2023-11-21T16:52:14.022Z,18.50
2023-11-21T16:54:46.137Z,18.70
2023-11-21T16:57:19.054Z,17.90
2023-11-21T16:59:52.157Z,18.40
2023-11-21T17:02:24.871Z,18.20
2023-11-21T17:04:57.247Z,17.20
2023-11-21T17:07:30.488Z,16.00
2023-11-21T17:10:06.320Z,16.90
2023-11-21T17:12:38.761Z,16.80
2023-11-21T17:15:13.458Z,17.50
2023-11-21T17:17:46.318Z,17.70
2023-11-21T17:20:20.283Z,17.40
2023-11-21T17:22:52.533Z,16.90
2023-11-21T17:25:25.133Z,18.50
2023-11-21T17:27:57.839Z,18.50
2023-11-21T17:30:30.392Z,17.00
2023-11-21T17:33:02.920Z,17.30
2023-11-21T17:35:35.706Z,17.40
2023-11-21T17:40:38.727Z,15.80
2023-11-21T17:43:11.763Z,17.20
2023-11-21T17:45:44.045Z,15.60
2023-11-21T17:48:16.551Z,15.70
2023-11-21T17:50:48.836Z,19.30
2023-11-21T17:53:21.629Z,17.80
2023-11-21T17:55:54.612Z,17.10
2023-11-21T17:58:26.763Z,17.10
2023-11-21T18:00:59.259Z,16.70
2023-11-21T18:06:02.387Z,15.50
2023-11-21T18:08:40.631Z,15.20
2023-11-21T18:11:13.166Z,15.70
2023-11-21T18:16:20.199Z,15.40
2023-11-21T18:18:53.078Z,16.50
2023-11-21T18:21:28.111Z,15.80
2023-11-21T18:24:02.863Z,14.30
2023-11-21T18:26:38.258Z,15.30
2023-11-21T18:29:10.946Z,15.40
2023-11-21T18:31:44.570Z,16.30
2023-11-21T18:34:17.062Z,14.80
2023-11-21T18:36:51.372Z,13.50
2023-11-21T18:39:23.855Z,14.10
2023-11-21T18:41:57.997Z,13.90
2023-11-21T18:44:32.556Z,13.10
2023-11-21T18:47:12.811Z,12.40
2023-11-21T18:49:45.437Z,13.10
2023-11-21T18:52:17.676Z,11.70
2023-11-21T18:54:50.535Z,11.90
2023-11-21T18:57:23.187Z,11.90
2023-11-21T19:02:27.137Z,10.60
2023-11-21T19:05:00.692Z,10.70
2023-11-21T19:07:36.906Z,12.20
2023-11-21T19:10:11.884Z,11.50
2023-11-21T19:12:44.077Z,11.50
2023-11-21T19:15:17.885Z,12.20
2023-11-21T19:17:50.422Z,12.00
2023-11-21T19:22:56.843Z,11.00
2023-11-21T19:25:29.058Z,12.30
2023-11-21T19:28:01.337Z,10.50
2023-11-21T19:30:36.087Z,12.20
2023-11-21T19:33:08.293Z,11.10
2023-11-21T19:35:40.651Z,12.10
2023-11-21T19:38:12.767Z,11.10
2023-11-21T19:40:45.433Z,11.20
2023-11-21T19:45:49.432Z,11.20
2023-11-21T19:48:24.273Z,11.40
2023-11-21T19:50:56.581Z,10.70
2023-11-21T19:53:28.662Z,10.50
2023-11-21T19:56:02.194Z,9.70
2023-11-21T19:58:34.589Z,10.70
2023-11-21T20:01:06.961Z,10.10
2023-11-21T20:03:40.429Z,9.70
2023-11-21T20:06:13.120Z,11.10
2023-11-21T20:08:47.535Z,10.10
2023-11-21T20:11:24.149Z,10.90
2023-11-21T20:13:57.119Z,9.90
2023-11-21T20:16:29.682Z,11.40
2023-11-21T20:19:03.407Z,10.00
2023-11-21T20:21:35.863Z,10.60
2023-11-21T20:26:42.858Z,10.30
2023-11-21T20:29:15.300Z,10.00
2023-11-21T20:31:47.485Z,10.70
2023-11-21T20:34:21.753Z,9.40
2023-11-21T20:36:55.919Z,9.80
2023-11-21T20:39:27.997Z,10.90
2023-11-21T20:42:00.272Z,10.70
2023-11-21T20:44:32.987Z,10.60
2023-11-21T20:47:12.105Z,11.60
2023-11-21T20:49:48.670Z,10.20
2023-11-21T20:52:21.661Z,9.80
2023-11-21T20:54:54.097Z,7.10
2023-11-21T20:59:59.125Z,11.20
2023-11-21T21:02:32.367Z,10.00
2023-11-21T21:05:07.428Z,9.90
2023-11-21T21:07:40.002Z,11.20
2023-11-21T21:10:13.142Z,12.30
2023-11-21T21:12:45.270Z,10.60
2023-11-21T21:15:20.589Z,7.90
2023-11-21T21:17:53.034Z,10.20
2023-11-21T21:20:25.386Z,10.40
2023-11-21T21:22:58.546Z,10.70
2023-11-21T21:25:31.328Z,11.70
2023-11-21T21:30:34.163Z,12.40
2023-11-21T21:33:07.223Z,11.10
2023-11-21T21:35:39.490Z,11.00
2023-11-21T21:38:12.599Z,10.90
2023-11-21T21:40:45.157Z,10.80
2023-11-21T21:43:17.830Z,11.90
2023-11-21T21:48:20.555Z,11.50
2023-11-21T21:50:52.848Z,10.00
2023-11-21T21:53:25.093Z,9.90
2023-11-21T21:55:57.494Z,10.60
2023-11-21T21:58:30.627Z,12.10
2023-11-21T22:01:04.793Z,10.20
2023-11-21T22:03:37.432Z,11.00
2023-11-21T22:06:10.446Z,11.80
2023-11-21T22:11:14.187Z,10.10
2023-11-21T22:13:46.274Z,12.00
2023-11-21T22:16:22.248Z,10.70
2023-11-21T22:18:54.351Z,10.70
2023-11-21T22:21:27.302Z,10.00
2023-11-21T22:23:59.539Z,10.50
2023-11-21T22:26:31.597Z,10.60
2023-11-21T22:29:05.463Z,11.10
2023-11-21T22:31:41.638Z,9.80
2023-11-21T22:34:14.709Z,11.40
2023-11-21T22:36:46.712Z,9.40
2023-11-21T22:39:18.884Z,9.90
2023-11-21T22:41:52.190Z,10.70
2023-11-21T22:44:24.472Z,10.40
2023-11-21T22:47:01.854Z,10.00
2023-11-21T22:49:34.727Z,10.00
2023-11-21T22:52:08.262Z,10.50
2023-11-21T22:54:40.306Z,11.20
2023-11-21T22:57:12.362Z,10.10
2023-11-21T22:59:44.349Z,10.20
2023-11-21T23:02:17.082Z,10.30
2023-11-21T23:04:49.331Z,10.70
2023-11-21T23:07:22.611Z,11.20
2023-11-21T23:09:54.685Z,11.70
2023-11-21T23:12:28.133Z,10.70
2023-11-21T23:15:00.325Z,12.20
2023-11-21T23:17:33.010Z,12.40
2023-11-21T23:22:42.030Z,10.90
2023-11-21T23:25:14.069Z,11.90
2023-11-21T23:27:46.483Z,11.80
2023-11-21T23:30:18.477Z,11.40
2023-11-21T23:32:50.865Z,13.20
2023-11-21T23:35:23.027Z,11.90
2023-11-21T23:37:55.587Z,11.90
2023-11-21T23:40:27.795Z,11.60
2023-11-21T23:43:00.475Z,11.00
2023-11-21T23:48:04.017Z,11.10
2023-11-21T23:50:36.492Z,11.70
2023-11-21T23:53:08.516Z,11.70
2023-11-21T23:55:40.651Z,12.10
2023-11-21T23:58:12.891Z,10.80
